createdAt,value
2018-11-21T00:01:07.862Z,93.00
2018-11-21T00:03:37.372Z,92.90
2018-11-21T00:06:06.751Z,92.90
2018-11-21T00:08:35.998Z,92.70
2018-11-21T00:11:06.534Z,92.90
2018-11-21T00:13:35.801Z,93.10
2018-11-21T00:16:05.193Z,93.00
2018-11-21T00:18:34.871Z,93.10
2018-11-21T00:21:04.208Z,93.20
2018-11-21T00:23:33.650Z,93.00
2018-11-21T00:26:02.937Z,93.20
2018-11-21T00:28:32.401Z,93.00
2018-11-21T00:31:01.760Z,92.90
2018-11-21T00:33:33.203Z,93.00
2018-11-21T00:36:02.707Z,93.20
2018-11-21T00:38:32.306Z,93.10
2018-11-21T00:41:01.886Z,93.20
2018-11-21T00:43:33.858Z,93.10
2018-11-21T00:46:03.146Z,93.10
2018-11-21T00:48:32.421Z,93.10
2018-11-21T00:51:07.342Z,93.10
2018-11-21T00:53:39.796Z,93.00
2018-11-21T00:56:09.252Z,93.00
2018-11-21T00:58:41.775Z,92.90
2018-11-21T01:01:11.055Z,92.90
2018-11-21T01:03:40.410Z,92.90
2018-11-21T01:06:09.677Z,93.00
2018-11-21T01:08:39.015Z,92.90
2018-11-21T01:11:08.473Z,93.00
2018-11-21T01:13:37.745Z,93.00
2018-11-21T01:16:07.164Z,93.10
2018-11-21T01:18:36.629Z,93.10
2018-11-21T01:21:06.316Z,93.20
2018-11-21T01:23:35.677Z,93.10
2018-11-21T01:26:06.879Z,93.10
2018-11-21T01:28:36.186Z,93.20
2018-11-21T01:31:05.923Z,93.30
2018-11-21T01:33:35.842Z,93.10
2018-11-21T01:36:05.133Z,93.10
2018-11-21T01:38:34.491Z,93.30
2018-11-21T01:41:03.654Z,93.50
2018-11-21T01:43:36.016Z,93.40
2018-11-21T01:46:05.462Z,93.40
2018-11-21T01:48:34.679Z,93.50
2018-11-21T01:51:04.004Z,93.60
2018-11-21T01:53:33.350Z,93.60
2018-11-21T01:56:02.837Z,93.60
2018-11-21T01:58:35.269Z,93.70
2018-11-21T02:01:04.738Z,93.60
2018-11-21T02:03:34.040Z,93.70
2018-11-21T02:06:03.440Z,93.70
2018-11-21T02:08:32.984Z,93.80
2018-11-21T02:11:02.315Z,93.90
2018-11-21T02:13:31.994Z,93.80
2018-11-21T02:16:01.738Z,94.00
2018-11-21T02:18:33.927Z,94.00
2018-11-21T02:21:05.895Z,93.80
2018-11-21T02:23:44.368Z,93.90
2018-11-21T02:26:16.712Z,94.00
2018-11-21T02:28:46.059Z,94.00
2018-11-21T02:31:16.989Z,94.00
2018-11-21T02:33:50.124Z,94.00
2018-11-21T02:36:19.336Z,93.90
2018-11-21T02:38:51.899Z,94.10
2018-11-21T02:41:21.515Z,94.10
2018-11-21T02:43:53.691Z,94.00
2018-11-21T02:46:25.976Z,94.10
2018-11-21T02:48:58.781Z,94.10
2018-11-21T02:51:28.106Z,94.30
2018-11-21T02:53:59.387Z,94.50
2018-11-21T02:57:06.813Z,94.70
2018-11-21T02:59:36.117Z,94.80
2018-11-21T03:02:05.449Z,95.30
2018-11-21T03:04:34.721Z,95.70
2018-11-21T03:07:03.998Z,95.90
2018-11-21T03:09:33.762Z,96.00
2018-11-21T03:12:02.964Z,96.20
2018-11-21T03:14:32.455Z,96.10
2018-11-21T03:17:02.055Z,96.20
2018-11-21T03:19:31.561Z,96.70
2018-11-21T03:22:01.078Z,96.60
2018-11-21T03:24:30.818Z,96.90
2018-11-21T03:27:00.212Z,97.30
2018-11-21T03:29:29.846Z,97.30
2018-11-21T03:32:21.778Z,97.30
2018-11-21T03:35:13.866Z,97.20
2018-11-21T03:38:07.101Z,97.20
2018-11-21T03:43:39.830Z,97.40
2018-11-21T03:46:12.103Z,97.30
2018-11-21T03:48:41.794Z,97.60
2018-11-21T03:51:12.776Z,97.30
2018-11-21T03:53:42.062Z,97.20
2018-11-21T03:56:11.342Z,97.50
2018-11-21T03:59:03.124Z,97.20
2018-11-21T04:01:50.167Z,97.00
2018-11-21T04:04:17.964Z,96.90
2018-11-21T04:07:00.855Z,96.70
2018-11-21T04:09:35.501Z,96.90
2018-11-21T04:12:23.207Z,96.90
2018-11-21T04:14:56.397Z,96.80
2018-11-21T04:17:25.968Z,96.60
2018-11-21T04:19:55.293Z,96.40
2018-11-21T04:22:24.623Z,96.30
2018-11-21T04:24:54.081Z,96.30
2018-11-21T04:27:23.542Z,96.00
2018-11-21T04:29:55.049Z,95.80
2018-11-21T04:32:28.839Z,96.40
2018-11-21T04:34:58.359Z,95.90
2018-11-21T04:37:27.745Z,95.50
2018-11-21T04:39:58.314Z,95.60
2018-11-21T04:42:28.066Z,95.50
2018-11-21T04:44:58.693Z,95.50
2018-11-21T04:47:26.856Z,95.40
2018-11-21T04:49:56.512Z,95.30
2018-11-21T04:52:26.047Z,95.50
2018-11-21T04:54:55.505Z,95.40
2018-11-21T04:57:30.988Z,95.30
2018-11-21T05:00:02.853Z,95.50
2018-11-21T05:02:32.970Z,95.50
2018-11-21T05:05:02.209Z,95.50
2018-11-21T05:07:31.737Z,95.50
2018-11-21T05:10:04.363Z,95.40
2018-11-21T05:12:38.436Z,95.50
2018-11-21T05:15:08.467Z,95.50
2018-11-21T05:17:37.679Z,95.30
2018-11-21T05:20:07.021Z,95.20
2018-11-21T05:22:40.060Z,95.20
2018-11-21T05:25:12.524Z,95.30
2018-11-21T05:27:41.888Z,95.30
2018-11-21T05:30:12.740Z,95.30
2018-11-21T05:32:44.935Z,95.30
2018-11-21T05:35:14.448Z,95.30
2018-11-21T05:37:43.858Z,95.30
2018-11-21T05:40:13.078Z,95.20
2018-11-21T05:42:42.407Z,95.40
2018-11-21T05:45:14.930Z,95.20
2018-11-21T05:47:44.367Z,95.10
2018-11-21T05:50:14.193Z,95.20
2018-11-21T05:52:43.651Z,95.40
2018-11-21T05:55:12.961Z,95.40
2018-11-21T05:57:42.510Z,95.40
2018-11-21T06:00:13.221Z,95.40
2018-11-21T06:02:42.520Z,95.30
2018-11-21T06:05:12.890Z,95.30
2018-11-21T06:07:42.143Z,95.30
2018-11-21T06:10:13.511Z,95.40
2018-11-21T06:12:45.901Z,95.40
2018-11-21T06:15:15.334Z,95.40
2018-11-21T06:17:48.132Z,95.40
2018-11-21T06:20:16.173Z,95.40
2018-11-21T06:22:45.497Z,95.40
2018-11-21T06:25:14.946Z,95.40
2018-11-21T06:27:44.236Z,95.40
2018-11-21T06:30:14.617Z,95.20
2018-11-21T06:32:43.935Z,95.80
2018-11-21T06:35:14.031Z,95.50
2018-11-21T06:37:43.422Z,95.50
2018-11-21T06:40:16.601Z,95.50
2018-11-21T06:42:56.134Z,95.40
2018-11-21T06:45:29.602Z,95.40
2018-11-21T06:47:58.880Z,95.40
2018-11-21T06:50:28.170Z,95.40
2018-11-21T06:52:58.850Z,95.40
2018-11-21T06:55:28.310Z,95.60
2018-11-21T06:57:57.900Z,95.60
2018-11-21T07:00:27.219Z,95.50
2018-11-21T07:02:56.561Z,95.50
2018-11-21T07:05:25.815Z,95.40
2018-11-21T07:07:55.256Z,95.50
2018-11-21T07:10:24.613Z,95.40
2018-11-21T07:12:53.973Z,95.40
2018-11-21T07:15:23.263Z,95.40
2018-11-21T07:17:52.562Z,95.50
2018-11-21T07:20:28.020Z,95.40
2018-11-21T07:22:57.367Z,95.30
2018-11-21T07:25:26.944Z,95.20
2018-11-21T07:27:56.199Z,95.30
2018-11-21T07:30:25.583Z,95.50
2018-11-21T07:32:55.040Z,95.40
2018-11-21T07:35:24.411Z,95.40
2018-11-21T07:37:53.926Z,95.20
2018-11-21T07:40:23.322Z,95.30
2018-11-21T07:42:52.804Z,95.20
2018-11-21T07:45:22.265Z,95.20
2018-11-21T07:47:51.883Z,95.10
2018-11-21T07:50:27.391Z,95.20
2018-11-21T07:52:56.979Z,94.90
2018-11-21T07:55:26.968Z,94.80
2018-11-21T07:57:58.839Z,94.80
2018-11-21T08:00:58.814Z,94.80
2018-11-21T08:03:47.290Z,95.10
2018-11-21T08:06:36.122Z,95.00
2018-11-21T08:09:27.649Z,95.00
2018-11-21T08:12:14.237Z,95.30
2018-11-21T08:15:08.152Z,95.00
2018-11-21T08:18:14.623Z,95.10
2018-11-21T08:20:59.755Z,95.20
2018-11-21T08:23:47.062Z,95.00
2018-11-21T08:26:38.188Z,95.10
2018-11-21T08:29:07.629Z,95.10
2018-11-21T08:31:37.445Z,95.00
2018-11-21T08:34:06.883Z,94.90
2018-11-21T08:36:36.301Z,94.90
2018-11-21T08:39:08.582Z,94.90
2018-11-21T08:41:38.016Z,94.70
2018-11-21T08:44:07.604Z,95.10
2018-11-21T08:46:37.505Z,95.20
2018-11-21T08:49:06.688Z,94.90
2018-11-21T08:51:36.012Z,95.00
2018-11-21T08:54:09.543Z,95.00
2018-11-21T08:56:41.520Z,95.10
2018-11-21T08:59:10.790Z,95.00
2018-11-21T09:01:40.091Z,95.00
2018-11-21T09:04:09.386Z,95.30
2018-11-21T09:06:38.726Z,95.20
2018-11-21T09:09:09.930Z,95.00
2018-11-21T09:11:39.345Z,95.10
2018-11-21T09:14:08.712Z,95.00
2018-11-21T09:16:37.972Z,94.90
2018-11-21T09:19:07.393Z,95.10
2018-11-21T09:21:36.914Z,95.20
2018-11-21T09:24:06.194Z,94.90
2018-11-21T09:26:35.539Z,95.10
2018-11-21T09:29:04.901Z,95.10
2018-11-21T09:31:34.329Z,95.00
2018-11-21T09:34:03.691Z,94.90
2018-11-21T09:36:33.172Z,94.90
2018-11-21T09:39:02.583Z,94.90
2018-11-21T09:41:31.977Z,95.00
2018-11-21T09:44:01.270Z,95.00
2018-11-21T09:46:32.706Z,94.90
2018-11-21T09:49:03.607Z,94.70
2018-11-21T09:51:33.130Z,94.90
2018-11-21T09:54:05.338Z,94.70
2018-11-21T09:56:34.707Z,94.80
2018-11-21T09:59:03.970Z,94.90
2018-11-21T10:02:10.758Z,94.80
2018-11-21T10:04:40.147Z,94.70
2018-11-21T10:07:09.567Z,94.70
2018-11-21T10:09:46.972Z,94.70
2018-11-21T10:12:16.295Z,94.70
2018-11-21T10:14:45.633Z,94.60
2018-11-21T10:17:14.927Z,94.70
2018-11-21T10:19:47.235Z,94.60
2018-11-21T10:22:16.618Z,94.70
2018-11-21T10:24:45.923Z,94.70
2018-11-21T10:27:15.186Z,94.60
2018-11-21T10:29:44.617Z,94.50
2018-11-21T10:32:14.035Z,94.50
2018-11-21T10:34:43.423Z,94.10
2018-11-21T10:37:12.721Z,94.10
2018-11-21T10:39:42.009Z,94.10
2018-11-21T10:42:11.448Z,93.90
2018-11-21T10:44:40.921Z,94.10
2018-11-21T10:47:10.366Z,94.00
2018-11-21T10:49:39.703Z,94.00
2018-11-21T10:52:09.143Z,93.80
2018-11-21T10:54:38.524Z,94.10
2018-11-21T10:57:07.983Z,94.30
2018-11-21T10:59:37.460Z,94.20
2018-11-21T11:02:24.360Z,94.20
2018-11-21T11:05:25.686Z,94.30
2018-11-21T11:08:28.847Z,93.80
2018-11-21T11:11:26.793Z,93.90
2018-11-21T11:14:15.163Z,93.80
2018-11-21T11:17:09.330Z,94.00
2018-11-21T11:20:01.374Z,94.00
2018-11-21T11:22:49.953Z,94.10
2018-11-21T11:25:48.131Z,93.90
2018-11-21T11:28:31.823Z,94.20
2018-11-21T11:31:08.724Z,93.90
2018-11-21T11:33:54.207Z,94.20
2018-11-21T11:36:48.889Z,94.30
2018-11-21T11:39:30.431Z,94.20
2018-11-21T11:42:16.421Z,94.30
2018-11-21T11:45:23.185Z,94.20
2018-11-21T11:48:10.645Z,94.50
2018-11-21T11:50:57.485Z,94.20
2018-11-21T11:53:44.535Z,94.60
2018-11-21T11:56:36.068Z,94.20
2018-11-21T11:59:22.594Z,94.30
2018-11-21T12:02:13.443Z,94.40
2018-11-21T12:05:02.823Z,94.10
2018-11-21T12:07:49.468Z,94.40
2018-11-21T12:10:38.369Z,94.30
2018-11-21T12:13:33.336Z,94.30
2018-11-21T12:16:48.920Z,94.30
2018-11-21T12:19:32.396Z,94.50
2018-11-21T12:22:19.354Z,94.50
2018-11-21T12:25:13.966Z,94.40
2018-11-21T12:27:55.010Z,94.30
2018-11-21T12:30:50.271Z,94.20
2018-11-21T12:33:42.509Z,94.30
2018-11-21T12:36:30.928Z,94.10
2018-11-21T12:39:18.108Z,94.10
2018-11-21T12:42:12.669Z,94.30
2018-11-21T12:45:09.961Z,94.20
2018-11-21T12:48:16.411Z,94.30
2018-11-21T12:51:13.689Z,94.30
2018-11-21T12:54:16.563Z,94.50
2018-11-21T13:01:01.895Z,94.30
2018-11-21T13:03:50.326Z,94.50
2018-11-21T13:06:50.818Z,94.70
2018-11-21T13:09:56.841Z,94.70
2018-11-21T13:12:46.606Z,94.80
2018-11-21T13:15:34.889Z,94.90
2018-11-21T13:18:26.402Z,95.00
2018-11-21T13:21:33.896Z,94.90
2018-11-21T13:24:38.063Z,94.90
2018-11-21T13:27:59.332Z,95.00
2018-11-21T13:31:08.777Z,95.10
2018-11-21T13:44:12.701Z,94.90
2018-11-21T13:47:28.182Z,94.80
2018-11-21T13:50:34.086Z,94.80
2018-11-21T13:56:51.516Z,94.80
2018-11-21T14:00:01.592Z,94.80
2018-11-21T14:02:34.900Z,94.70
2018-11-21T14:05:22.745Z,94.80
2018-11-21T14:07:52.396Z,95.00
2018-11-21T14:10:21.695Z,95.00
2018-11-21T14:12:52.253Z,94.80
2018-11-21T14:15:21.804Z,94.90
2018-11-21T14:17:51.116Z,94.90
2018-11-21T14:20:41.163Z,95.10
2018-11-21T14:23:19.051Z,95.10
2018-11-21T14:26:22.980Z,95.10
2018-11-21T14:29:15.542Z,95.00
2018-11-21T14:35:28.168Z,95.10
2018-11-21T14:38:02.287Z,95.30
2018-11-21T14:40:34.929Z,95.20
2018-11-21T14:43:06.278Z,95.20
2018-11-21T14:46:06.840Z,95.10
2018-11-21T14:48:36.775Z,95.20
2018-11-21T14:51:42.398Z,95.30
2018-11-21T14:54:12.652Z,95.30
2018-11-21T14:56:45.618Z,95.20
2018-11-21T14:59:35.721Z,95.30
2018-11-21T15:02:16.432Z,95.40
2018-11-21T15:04:46.229Z,95.40
2018-11-21T15:07:16.860Z,95.50
2018-11-21T15:09:52.486Z,95.60
2018-11-21T15:12:24.188Z,95.50
2018-11-21T15:14:51.985Z,95.60
2018-11-21T15:17:26.473Z,95.60
2018-11-21T15:20:05.041Z,95.60
2018-11-21T15:22:34.358Z,95.60
2018-11-21T15:25:05.116Z,95.60
2018-11-21T15:27:34.523Z,95.60
2018-11-21T15:30:04.950Z,95.50
2018-11-21T15:32:34.547Z,95.40
2018-11-21T15:35:04.007Z,95.70
2018-11-21T15:37:33.673Z,95.50
2018-11-21T15:40:03.409Z,95.40
2018-11-21T15:42:32.761Z,95.60
2018-11-21T15:45:02.204Z,95.50
2018-11-21T15:47:31.562Z,95.70
2018-11-21T15:50:00.947Z,95.50
2018-11-21T15:52:30.236Z,95.40
2018-11-21T15:55:00.206Z,95.50
2018-11-21T15:57:29.388Z,95.60
2018-11-21T15:59:58.915Z,95.60
2018-11-21T16:02:28.247Z,95.60
2018-11-21T16:04:58.331Z,95.60
2018-11-21T16:07:27.953Z,95.70
2018-11-21T16:09:57.220Z,95.70
2018-11-21T16:12:26.527Z,95.70
2018-11-21T16:14:58.532Z,95.60
2018-11-21T16:17:28.011Z,95.60
2018-11-21T16:19:57.392Z,95.50
2018-11-21T16:22:26.625Z,95.60
2018-11-21T16:24:56.022Z,95.50
2018-11-21T16:27:25.371Z,95.60
2018-11-21T16:29:54.758Z,95.60
2018-11-21T16:32:24.075Z,95.60
2018-11-21T16:34:53.349Z,95.60
2018-11-21T16:37:22.836Z,95.70
2018-11-21T16:39:52.135Z,95.60
2018-11-21T16:42:21.592Z,95.60
2018-11-21T16:44:50.997Z,95.60
2018-11-21T16:47:20.741Z,95.50
2018-11-21T16:49:50.100Z,95.50
2018-11-21T16:52:19.633Z,95.50
2018-11-21T16:54:48.978Z,95.50
2018-11-21T16:57:18.294Z,95.50
2018-11-21T16:59:48.019Z,95.40
2018-11-21T17:02:18.010Z,95.40
2018-11-21T17:04:47.406Z,95.40
2018-11-21T17:07:16.569Z,95.40
2018-11-21T17:09:46.192Z,95.30
2018-11-21T17:12:15.788Z,95.40
2018-11-21T17:14:47.603Z,95.30
2018-11-21T17:17:16.924Z,95.70
2018-11-21T17:19:46.326Z,95.30
2018-11-21T17:22:15.839Z,95.10
2018-11-21T17:24:45.572Z,95.20
2018-11-21T17:27:22.461Z,95.00
2018-11-21T17:29:53.939Z,95.10
2018-11-21T17:32:21.545Z,94.90
2018-11-21T17:34:50.972Z,95.00
2018-11-21T17:37:22.877Z,95.20
2018-11-21T17:39:52.366Z,95.10
2018-11-21T17:42:21.712Z,95.20
2018-11-21T17:44:51.276Z,95.20
2018-11-21T17:47:24.338Z,95.00
2018-11-21T17:49:59.029Z,95.00
2018-11-21T17:52:28.433Z,95.10
2018-11-21T17:54:57.863Z,95.10
2018-11-21T17:57:30.256Z,95.50
2018-11-21T18:00:05.994Z,95.10
2018-11-21T18:02:33.269Z,95.20
2018-11-21T18:05:08.307Z,94.70
2018-11-21T18:07:32.153Z,94.90
2018-11-21T18:10:01.892Z,94.70
2018-11-21T18:12:31.347Z,94.80
2018-11-21T18:15:00.708Z,94.80
2018-11-21T18:17:31.046Z,95.20
2018-11-21T18:20:00.517Z,94.90
2018-11-21T18:22:30.009Z,95.00
2018-11-21T18:24:59.622Z,94.90
2018-11-21T18:27:29.219Z,94.80
2018-11-21T18:29:58.500Z,94.90
2018-11-21T18:32:27.863Z,94.90
2018-11-21T18:34:57.159Z,94.90
2018-11-21T18:37:26.831Z,95.00
2018-11-21T18:39:56.128Z,94.90
2018-11-21T18:42:28.430Z,95.00
2018-11-21T18:44:58.042Z,95.00
2018-11-21T18:47:27.414Z,94.90
2018-11-21T18:50:02.378Z,95.00
2018-11-21T18:52:31.650Z,95.10
2018-11-21T18:55:04.741Z,95.10
2018-11-21T18:58:22.109Z,95.10
2018-11-21T19:00:53.584Z,95.10
2018-11-21T19:03:23.052Z,95.00
2018-11-21T19:05:54.749Z,95.10
2018-11-21T19:08:26.435Z,95.10
2018-11-21T19:11:05.373Z,95.10
2018-11-21T19:13:34.794Z,95.10
2018-11-21T19:16:04.755Z,94.90
2018-11-21T19:18:34.154Z,94.90
2018-11-21T19:21:05.023Z,95.00
2018-11-21T19:23:34.655Z,95.00
2018-11-21T19:26:04.216Z,95.10
2018-11-21T19:28:33.818Z,95.10
2018-11-21T19:31:03.297Z,95.20
2018-11-21T19:33:32.758Z,95.20
2018-11-21T19:36:02.344Z,95.20
2018-11-21T19:38:31.796Z,95.20
2018-11-21T19:41:02.927Z,95.20
2018-11-21T19:43:32.844Z,95.10
2018-11-21T19:46:02.284Z,95.10
2018-11-21T19:48:31.769Z,95.10
2018-11-21T19:51:01.053Z,95.10
2018-11-21T19:53:30.437Z,95.00
2018-11-21T19:56:00.278Z,95.10
2018-11-21T19:58:30.140Z,95.10
2018-11-21T20:00:59.603Z,94.90
2018-11-21T20:03:28.978Z,95.00
2018-11-21T20:06:04.204Z,94.90
2018-11-21T20:08:31.384Z,94.90
2018-11-21T20:11:00.911Z,95.00
2018-11-21T20:13:30.171Z,94.80
2018-11-21T20:16:01.321Z,94.90
2018-11-21T20:18:30.605Z,94.90
2018-11-21T20:20:59.904Z,94.90
2018-11-21T20:23:29.357Z,94.90
2018-11-21T20:25:58.713Z,94.90
2018-11-21T20:28:28.093Z,94.90
2018-11-21T20:30:57.383Z,95.00
2018-11-21T20:33:26.719Z,95.30
2018-11-21T20:35:56.026Z,94.60
2018-11-21T20:38:25.504Z,94.70
2018-11-21T20:40:54.778Z,94.60
2018-11-21T20:43:24.893Z,94.70
2018-11-21T20:45:56.939Z,94.50
2018-11-21T20:48:26.385Z,94.50
2018-11-21T20:50:58.025Z,94.70
2018-11-21T20:53:27.502Z,94.70
2018-11-21T20:55:56.772Z,94.60
2018-11-21T20:58:26.189Z,95.00
2018-11-21T21:00:55.600Z,94.50
2018-11-21T21:03:25.408Z,94.40
2018-11-21T21:05:54.690Z,94.40
2018-11-21T21:08:28.448Z,94.40
2018-11-21T21:10:57.803Z,94.40
2018-11-21T21:13:27.187Z,94.50
2018-11-21T21:15:57.801Z,94.60
2018-11-21T21:18:29.234Z,94.60
2018-11-21T21:20:58.613Z,94.80
2018-11-21T21:23:27.978Z,94.80
2018-11-21T21:25:57.428Z,94.70
2018-11-21T21:28:26.628Z,94.70
2018-11-21T21:30:55.962Z,94.80
2018-11-21T21:33:25.281Z,94.80
2018-11-21T21:35:54.630Z,94.70
2018-11-21T21:38:23.938Z,94.70
2018-11-21T21:40:53.260Z,94.80
2018-11-21T21:43:22.636Z,94.90
2018-11-21T21:45:52.243Z,94.80
2018-11-21T21:48:21.570Z,95.00
2018-11-21T21:50:50.952Z,94.90
2018-11-21T21:53:20.221Z,94.80
2018-11-21T21:55:49.622Z,94.90
2018-11-21T21:58:18.923Z,94.70
2018-11-21T22:00:48.111Z,94.70
2018-11-21T22:03:17.504Z,94.80
2018-11-21T22:05:46.913Z,94.70
2018-11-21T22:08:16.294Z,95.10
2018-11-21T22:10:45.650Z,94.80
2018-11-21T22:13:15.043Z,94.80
2018-11-21T22:15:44.284Z,94.90
2018-11-21T22:18:14.949Z,94.50
2018-11-21T22:20:44.523Z,94.80
2018-11-21T22:23:13.855Z,94.60
2018-11-21T22:25:43.165Z,94.60
2018-11-21T22:28:12.551Z,94.60
2018-11-21T22:30:42.053Z,94.60
2018-11-21T22:33:11.333Z,94.50
2018-11-21T22:35:41.527Z,94.60
2018-11-21T22:38:10.791Z,94.60
2018-11-21T22:41:24.633Z,94.60
2018-11-21T22:43:55.473Z,94.70
2018-11-21T22:46:26.308Z,94.80
2018-11-21T22:48:57.353Z,94.70
2018-11-21T22:51:28.317Z,94.70
2018-11-21T22:53:59.055Z,94.80
2018-11-21T22:56:30.141Z,94.80
2018-11-21T22:59:01.112Z,94.90
2018-11-21T23:01:33.939Z,95.00
2018-11-21T23:04:04.699Z,94.80
2018-11-21T23:06:35.469Z,94.70
2018-11-21T23:09:08.807Z,94.80
2018-11-21T23:11:39.749Z,94.90
2018-11-21T23:14:10.591Z,94.90
2018-11-21T23:16:41.421Z,94.90
2018-11-21T23:19:12.386Z,94.90
2018-11-21T23:21:43.215Z,95.00
2018-11-21T23:24:13.993Z,95.00
2018-11-21T23:26:44.837Z,95.00
2018-11-21T23:29:15.653Z,94.90
2018-11-21T23:31:46.448Z,95.00
2018-11-21T23:34:17.235Z,95.00
2018-11-21T23:36:48.043Z,95.10
2018-11-21T23:39:22.441Z,95.40
2018-11-21T23:41:53.242Z,95.00
2018-11-21T23:44:24.002Z,95.10
2018-11-21T23:46:55.010Z,95.10
2018-11-21T23:49:25.858Z,94.90
2018-11-21T23:51:56.677Z,94.90
2018-11-21T23:54:32.733Z,95.00
2018-11-21T23:57:16.042Z,95.00
2018-11-21T23:59:37.091Z,94.90
